createdAt,value
2022-10-22T05:59:40.750Z,97877.50
2022-10-22T06:02:12.014Z,97896.69
2022-10-22T06:04:39.677Z,97882.25
2022-10-22T06:07:09.307Z,97892.66
2022-10-22T06:12:11.096Z,97894.03
2022-10-22T06:14:38.664Z,97892.53
2022-10-22T06:17:06.327Z,97891.00
2022-10-22T06:19:34.005Z,97868.53
2022-10-22T06:22:01.709Z,97869.81
2022-10-22T06:24:29.329Z,97869.69
2022-10-22T06:26:57.031Z,97872.50
2022-10-22T06:29:24.699Z,97881.50
2022-10-22T06:31:52.360Z,97878.16
2022-10-22T06:34:20.189Z,97879.44
2022-10-22T06:36:47.941Z,97892.47
2022-10-22T06:39:16.441Z,97877.13
2022-10-22T06:41:44.295Z,97883.19
2022-10-22T06:44:15.997Z,97880.31
2022-10-22T06:46:43.823Z,97894.59
2022-10-22T06:49:13.861Z,97879.97
2022-10-22T06:51:41.745Z,97892.63
2022-10-22T06:54:09.320Z,97894.56
2022-10-22T06:56:37.362Z,97876.25
2022-10-22T06:59:05.310Z,97861.00
2022-10-22T07:01:33.952Z,97841.91
2022-10-22T07:04:02.061Z,97831.66
2022-10-22T07:06:29.814Z,97826.03
2022-10-22T07:08:58.317Z,97818.63
2022-10-22T07:11:28.110Z,97814.66
2022-10-22T07:13:56.798Z,97819.34
2022-10-22T07:16:28.153Z,97832.50
2022-10-22T07:19:01.212Z,97837.63
2022-10-22T07:21:28.962Z,97849.63
2022-10-22T07:23:56.939Z,97856.31
2022-10-22T07:26:25.565Z,97848.56
2022-10-22T07:28:53.239Z,97832.09
2022-10-22T07:31:20.932Z,97840.63
2022-10-22T07:33:48.610Z,97852.22
2022-10-22T07:36:18.130Z,97868.03
2022-10-22T07:38:52.292Z,97892.78
2022-10-22T07:41:20.081Z,97906.47
2022-10-22T07:43:47.655Z,97907.28
2022-10-22T07:46:15.665Z,97908.22
2022-10-22T07:48:43.549Z,97901.13
2022-10-22T07:51:11.309Z,97899.00
2022-10-22T07:53:39.095Z,97901.16
2022-10-22T07:56:07.100Z,97914.53
2022-10-22T07:58:34.741Z,97918.78
2022-10-22T08:01:02.835Z,97914.41
2022-10-22T08:03:30.520Z,97933.31
2022-10-22T08:05:58.396Z,97935.47
2022-10-22T08:08:29.717Z,97941.56
2022-10-22T08:10:59.570Z,97924.78
2022-10-22T08:13:28.564Z,97937.41
2022-10-22T08:15:57.878Z,97927.28
2022-10-22T08:18:25.891Z,97916.28
2022-10-22T08:20:53.674Z,97910.00
2022-10-22T08:23:25.860Z,97907.66
2022-10-22T08:25:56.121Z,97919.97
2022-10-22T08:28:23.784Z,97946.44
2022-10-22T08:30:51.549Z,97922.31
2022-10-22T08:33:19.323Z,97911.38
2022-10-22T08:35:51.037Z,97918.84
2022-10-22T08:38:18.786Z,97936.66
2022-10-22T08:40:54.318Z,97924.53
2022-10-22T08:43:59.318Z,97929.31
2022-10-22T08:46:52.685Z,97934.91
2022-10-22T08:49:22.183Z,97944.88
2022-10-22T08:51:49.793Z,97963.34
2022-10-22T08:54:17.282Z,97953.88
2022-10-22T08:56:46.134Z,97948.00
2022-10-22T08:59:23.439Z,97947.19
2022-10-22T09:01:52.013Z,97946.00
2022-10-22T09:04:25.602Z,97940.63
2022-10-22T09:06:54.454Z,97943.47
2022-10-22T09:09:22.271Z,97940.94
2022-10-22T09:11:51.052Z,97931.25
2022-10-22T09:14:22.970Z,97928.94
2022-10-22T09:16:50.636Z,97926.31
2022-10-22T09:19:40.223Z,97938.94
2022-10-22T09:22:25.908Z,97942.53
2022-10-22T09:25:00.174Z,97932.88
2022-10-22T09:27:30.035Z,97923.03
2022-10-22T09:29:57.952Z,97940.94
2022-10-22T09:32:26.070Z,97955.53
2022-10-22T09:34:56.364Z,97951.16
2022-10-22T09:37:28.620Z,97947.91
2022-10-22T09:39:57.107Z,97935.81
2022-10-22T09:42:24.727Z,97928.81
2022-10-22T09:44:57.890Z,97952.69
2022-10-22T09:47:42.758Z,97956.91
2022-10-22T09:50:20.827Z,97955.09
2022-10-22T09:52:59.020Z,97963.19
2022-10-22T09:55:26.949Z,97963.13
2022-10-22T09:57:55.905Z,97964.94
2022-10-22T10:00:25.260Z,97955.50
2022-10-22T10:02:59.925Z,97948.88
2022-10-22T10:05:34.708Z,97960.97
2022-10-22T10:08:08.556Z,97964.97
2022-10-22T10:11:00.094Z,97956.84
2022-10-22T10:13:54.387Z,97953.28
2022-10-22T10:16:40.563Z,97947.66
2022-10-22T10:19:23.777Z,97935.97
2022-10-22T10:22:09.940Z,97940.56
2022-10-22T10:25:02.635Z,97940.03
2022-10-22T10:27:53.549Z,97930.03
2022-10-22T10:30:24.133Z,97934.84
2022-10-22T10:33:09.993Z,97937.94
2022-10-22T10:36:12.382Z,97919.56
2022-10-22T10:38:58.365Z,97924.66
2022-10-22T10:41:47.344Z,97924.88
2022-10-22T10:44:22.963Z,97909.53
2022-10-22T10:47:25.985Z,97909.06
2022-10-22T10:49:54.769Z,97906.03
2022-10-22T10:52:40.241Z,97899.22
2022-10-22T10:55:19.190Z,97889.59
2022-10-22T10:58:11.062Z,97879.25
2022-10-22T11:00:47.515Z,97873.78
2022-10-22T11:03:30.338Z,97881.09
2022-10-22T11:06:11.434Z,97880.59
2022-10-22T11:08:43.594Z,97885.38
2022-10-22T11:11:21.224Z,97881.91
2022-10-22T11:13:59.721Z,97883.56
2022-10-22T11:16:58.836Z,97881.75
2022-10-22T11:20:01.557Z,97888.34
2022-10-22T11:23:17.439Z,97880.16
2022-10-22T11:25:48.034Z,97877.63
2022-10-22T11:28:29.321Z,97898.88
2022-10-22T11:30:58.478Z,97889.38
2022-10-22T11:33:28.339Z,97879.00
2022-10-22T11:35:56.338Z,97856.09
2022-10-22T11:38:25.458Z,97854.44
2022-10-22T11:41:01.170Z,97856.34
2022-10-22T11:43:30.156Z,97856.50
2022-10-22T11:46:03.773Z,97853.84
2022-10-22T11:48:36.279Z,97854.09
2022-10-22T11:51:04.289Z,97849.97
2022-10-22T11:53:35.796Z,97847.34
2022-10-22T11:56:07.825Z,97861.19
2022-10-22T11:58:39.544Z,97849.50
2022-10-22T12:01:10.215Z,97851.53
2022-10-22T12:04:04.653Z,97845.19
2022-10-22T12:06:54.345Z,97845.13
2022-10-22T12:09:24.931Z,97829.44
2022-10-22T12:11:52.655Z,97824.59
2022-10-22T12:14:28.129Z,97820.03
2022-10-22T12:16:58.002Z,97812.78
2022-10-22T12:19:42.628Z,97818.06
2022-10-22T12:22:18.904Z,97806.50
2022-10-22T12:24:48.176Z,97814.09
2022-10-22T12:27:22.627Z,97818.84
2022-10-22T12:29:55.653Z,97822.38
2022-10-22T12:32:23.876Z,97819.59
2022-10-22T12:34:52.299Z,97818.13
2022-10-22T12:37:20.036Z,97812.88
2022-10-22T12:39:47.598Z,97813.63
2022-10-22T12:42:17.399Z,97820.97
2022-10-22T12:44:48.483Z,97819.13
2022-10-22T12:47:18.056Z,97821.16
2022-10-22T12:49:49.715Z,97812.00
2022-10-22T12:52:20.574Z,97816.25
2022-10-22T12:54:49.525Z,97809.19
2022-10-22T12:57:17.977Z,97800.88
2022-10-22T12:59:49.960Z,97806.78
2022-10-22T13:02:24.076Z,97799.47
2022-10-22T13:05:12.587Z,97789.25
2022-10-22T13:07:42.577Z,97792.03
2022-10-22T13:10:26.467Z,97797.75
2022-10-22T13:12:58.003Z,97798.38
2022-10-22T13:15:28.770Z,97806.47
2022-10-22T13:18:04.014Z,97802.97
2022-10-22T13:20:31.947Z,97797.88
2022-10-22T13:23:00.607Z,97791.41
2022-10-22T13:25:32.993Z,97801.78
2022-10-22T13:28:13.484Z,97800.53
2022-10-22T13:30:51.716Z,97793.81
2022-10-22T13:33:37.244Z,97791.88
2022-10-22T13:36:05.386Z,97789.69
2022-10-22T13:38:32.963Z,97782.50
2022-10-22T13:41:00.764Z,97775.88
2022-10-22T13:43:28.366Z,97792.50
2022-10-22T13:45:57.998Z,97789.63
2022-10-22T13:48:26.265Z,97780.22
2022-10-22T13:50:54.202Z,97780.72
2022-10-22T13:53:23.416Z,97776.88
2022-10-22T13:55:51.378Z,97787.75
2022-10-22T13:58:26.327Z,97789.19
2022-10-22T14:00:57.148Z,97785.94
2022-10-22T14:03:27.387Z,97794.50
2022-10-22T14:05:55.011Z,97801.44
2022-10-22T14:08:23.439Z,97792.69
2022-10-22T14:10:51.203Z,97794.47
2022-10-22T14:13:19.565Z,97788.25
2022-10-22T14:15:48.552Z,97789.81
2022-10-22T14:18:24.262Z,97775.47
2022-10-22T14:20:56.526Z,97790.03
2022-10-22T14:23:28.775Z,97781.22
2022-10-22T14:25:56.740Z,97783.66
2022-10-22T14:28:24.364Z,97779.00
2022-10-22T14:30:52.216Z,97797.94
2022-10-22T14:33:21.088Z,97803.47
2022-10-22T14:35:49.187Z,97801.25
2022-10-22T14:38:17.367Z,97800.88
2022-10-22T14:40:45.285Z,97801.19
2022-10-22T14:43:33.446Z,97798.25
2022-10-22T14:46:01.078Z,97806.50
2022-10-22T14:48:28.610Z,97804.81
2022-10-22T14:50:56.482Z,97804.44
2022-10-22T14:53:24.235Z,97788.66
2022-10-22T14:55:55.583Z,97780.03
2022-10-22T14:58:23.354Z,97787.84
2022-10-22T15:00:50.969Z,97790.50
2022-10-22T15:03:19.047Z,97791.97
2022-10-22T15:05:46.676Z,97787.97
2022-10-22T15:08:14.753Z,97787.94
2022-10-22T15:10:42.839Z,97774.94
2022-10-22T15:13:10.735Z,97768.31
2022-10-22T15:15:41.453Z,97774.63
2022-10-22T15:18:09.184Z,97770.19
2022-10-22T15:20:36.802Z,97769.00
2022-10-22T15:23:04.537Z,97764.34
2022-10-22T15:25:32.271Z,97765.41
2022-10-22T15:28:03.392Z,97771.19
2022-10-22T15:30:36.822Z,97762.88
2022-10-22T15:33:04.451Z,97760.69
2022-10-22T15:35:32.222Z,97760.50
2022-10-22T15:37:59.866Z,97750.16
2022-10-22T15:50:08.906Z,97764.97
2022-10-22T15:52:37.086Z,97757.84
2022-10-22T15:55:07.131Z,97758.69
2022-10-22T15:57:34.923Z,97756.88
2022-10-22T16:00:03.433Z,97755.66
2022-10-22T16:02:40.133Z,97758.13
2022-10-22T16:05:08.245Z,97768.72
2022-10-22T16:07:35.942Z,97759.00
2022-10-22T16:10:03.967Z,97755.31
2022-10-22T16:12:51.788Z,97760.41
2022-10-22T16:15:19.605Z,97764.72
2022-10-22T16:17:47.174Z,97766.56
2022-10-22T16:20:33.710Z,97764.34
2022-10-22T16:23:01.370Z,97773.88
2022-10-22T16:25:29.711Z,97765.56
2022-10-22T16:27:57.340Z,97766.34
2022-10-22T16:30:24.859Z,97767.38
2022-10-22T16:32:53.086Z,97772.88
2022-10-22T16:35:20.690Z,97773.47
2022-10-22T16:37:48.358Z,97775.91
2022-10-22T16:40:16.217Z,97782.41
2022-10-22T16:43:02.982Z,97796.84
2022-10-22T16:45:31.075Z,97812.28
2022-10-22T16:48:18.172Z,97815.50
2022-10-22T16:50:45.873Z,97815.50
2022-10-22T16:53:13.465Z,97819.75
2022-10-22T16:55:41.508Z,97823.84
2022-10-22T16:58:09.179Z,97829.75
